createdAt,value
2022-09-30T00:01:10.597Z,8.36
2022-09-30T00:03:37.190Z,8.37
2022-09-30T00:06:08.759Z,8.40
2022-09-30T00:08:37.168Z,8.42
2022-09-30T00:11:11.209Z,8.44
2022-09-30T00:13:40.124Z,8.46
2022-09-30T00:16:09.055Z,8.46
2022-09-30T00:18:36.753Z,8.46
2022-09-30T00:21:04.312Z,8.47
2022-09-30T00:23:34.443Z,8.50
2022-09-30T00:26:04.293Z,8.41
2022-09-30T00:28:31.109Z,8.31
2022-09-30T00:31:05.379Z,8.31
2022-09-30T00:33:32.234Z,8.33
2022-09-30T00:35:59.058Z,8.37
2022-09-30T00:38:27.766Z,8.33
2022-09-30T00:40:56.304Z,8.30
2022-09-30T00:43:43.979Z,8.31
2022-09-30T00:46:21.156Z,8.27
2022-09-30T00:48:53.900Z,8.29
2022-09-30T00:51:30.609Z,8.30
2022-09-30T00:54:01.951Z,8.23
2022-09-30T00:56:39.478Z,8.12
2022-09-30T00:59:19.793Z,8.00
2022-09-30T01:01:46.425Z,7.95
2022-09-30T01:04:16.043Z,8.01
2022-09-30T01:06:43.318Z,8.04
2022-09-30T01:09:11.584Z,8.10
2022-09-30T01:11:38.346Z,8.14
2022-09-30T01:14:14.520Z,8.16
2022-09-30T01:17:02.844Z,8.17
2022-09-30T01:20:05.844Z,8.18
2022-09-30T01:22:51.685Z,8.23
2022-09-30T01:25:21.027Z,8.29
2022-09-30T01:28:12.142Z,8.30
2022-09-30T01:31:00.511Z,8.27
2022-09-30T01:33:52.909Z,8.22
2022-09-30T01:36:37.844Z,8.30
2022-09-30T01:39:23.164Z,8.31
2022-09-30T01:42:01.745Z,8.29
2022-09-30T01:45:04.260Z,8.31
2022-09-30T01:47:33.209Z,8.30
2022-09-30T01:50:18.205Z,8.28
2022-09-30T01:53:09.593Z,8.22
2022-09-30T01:55:42.917Z,8.18
2022-09-30T01:58:16.121Z,8.20
2022-09-30T02:00:49.233Z,8.16
2022-09-30T02:03:22.354Z,8.12
2022-09-30T02:06:11.835Z,8.08
2022-09-30T02:08:44.253Z,8.09
2022-09-30T02:11:25.915Z,8.09
2022-09-30T02:14:06.031Z,8.09
2022-09-30T02:16:39.938Z,8.10
2022-09-30T02:19:11.318Z,8.12
2022-09-30T02:21:42.434Z,8.17
2022-09-30T02:24:14.743Z,8.20
2022-09-30T02:26:44.224Z,8.09
2022-09-30T02:29:19.559Z,8.08
2022-09-30T02:31:55.891Z,8.01
2022-09-30T02:34:33.890Z,7.96
2022-09-30T02:37:40.526Z,7.94
2022-09-30T02:40:07.379Z,7.95
2022-09-30T02:42:34.431Z,8.01
2022-09-30T02:45:08.648Z,8.00
2022-09-30T02:48:07.673Z,7.97
2022-09-30T02:51:00.610Z,7.98
2022-09-30T02:53:27.049Z,7.96
2022-09-30T02:56:23.531Z,7.99
2022-09-30T02:58:52.835Z,8.01
2022-09-30T03:01:20.074Z,7.96
2022-09-30T03:03:48.862Z,7.90
2022-09-30T03:06:15.701Z,7.85
2022-09-30T03:08:43.699Z,7.80
2022-09-30T03:11:25.098Z,7.82
2022-09-30T03:14:24.206Z,7.89
2022-09-30T03:17:25.884Z,7.93
2022-09-30T03:20:05.894Z,7.91
2022-09-30T03:23:15.143Z,7.95
2022-09-30T03:25:57.139Z,7.98
2022-09-30T03:28:36.294Z,7.94
2022-09-30T03:31:14.245Z,7.75
2022-09-30T03:34:07.206Z,7.65
2022-09-30T03:37:04.317Z,7.65
2022-09-30T03:39:49.262Z,7.76
2022-09-30T03:42:27.098Z,7.77
2022-09-30T03:45:03.997Z,7.86
2022-09-30T03:47:34.013Z,7.80
2022-09-30T03:50:07.141Z,7.65
2022-09-30T03:52:34.867Z,7.66
2022-09-30T03:55:04.423Z,7.74
2022-09-30T03:57:31.004Z,7.75
2022-09-30T03:59:58.133Z,7.71
2022-09-30T04:02:25.510Z,7.61
2022-09-30T04:04:52.093Z,7.50
2022-09-30T04:07:18.949Z,7.47
2022-09-30T04:09:45.514Z,7.52
2022-09-30T04:12:12.046Z,7.62
2022-09-30T04:14:38.510Z,7.67
2022-09-30T04:17:05.773Z,7.70
2022-09-30T04:19:32.313Z,7.77
2022-09-30T04:21:58.980Z,7.77
2022-09-30T04:24:25.525Z,7.82
2022-09-30T04:26:52.067Z,7.88
2022-09-30T04:29:18.620Z,7.88
2022-09-30T04:31:45.296Z,7.85
2022-09-30T04:34:11.919Z,7.67
2022-09-30T04:36:38.706Z,7.47
2022-09-30T04:39:05.628Z,7.40
2022-09-30T04:41:34.037Z,7.37
2022-09-30T04:44:05.994Z,7.46
2022-09-30T04:46:36.599Z,7.51
2022-09-30T04:49:09.107Z,7.48
2022-09-30T04:51:36.465Z,7.29
2022-09-30T04:54:03.565Z,7.29
2022-09-30T04:56:30.195Z,7.31
2022-09-30T04:58:57.392Z,7.36
2022-09-30T05:01:23.993Z,7.42
2022-09-30T05:03:50.772Z,7.42
2022-09-30T05:06:17.794Z,7.53
2022-09-30T05:08:46.113Z,7.58
2022-09-30T05:11:18.860Z,7.53
2022-09-30T05:13:46.129Z,7.56
2022-09-30T05:16:13.533Z,7.39
2022-09-30T05:18:42.682Z,7.26
2022-09-30T05:21:10.133Z,7.19
2022-09-30T05:23:36.897Z,7.24
2022-09-30T05:26:03.564Z,7.32
2022-09-30T05:28:31.383Z,7.43
2022-09-30T05:31:00.043Z,7.46
2022-09-30T05:33:29.411Z,7.50
2022-09-30T05:36:00.009Z,7.56
2022-09-30T05:38:26.683Z,7.59
2022-09-30T05:40:54.393Z,7.65
2022-09-30T05:43:20.952Z,7.66
2022-09-30T05:45:55.328Z,7.77
2022-09-30T05:48:23.379Z,7.86
2022-09-30T05:50:54.678Z,7.89
2022-09-30T05:53:21.150Z,7.86
2022-09-30T05:55:48.685Z,7.88
2022-09-30T05:58:16.570Z,7.87
2022-09-30T06:00:45.131Z,7.89
2022-09-30T06:03:11.837Z,7.78
2022-09-30T06:05:38.344Z,7.75
2022-09-30T06:08:07.133Z,7.71
2022-09-30T06:10:34.812Z,7.82
2022-09-30T06:13:04.727Z,7.98
2022-09-30T06:15:31.568Z,8.07
2022-09-30T06:17:58.368Z,8.03
2022-09-30T06:20:25.178Z,8.03
2022-09-30T06:22:51.652Z,8.13
2022-09-30T06:25:18.287Z,8.18
2022-09-30T06:27:49.978Z,8.23
2022-09-30T06:30:16.866Z,8.23
2022-09-30T06:32:43.956Z,8.27
2022-09-30T06:35:10.903Z,8.33
2022-09-30T06:37:38.648Z,8.36
2022-09-30T06:40:06.424Z,8.35
2022-09-30T06:42:33.877Z,8.42
2022-09-30T06:45:00.341Z,8.54
2022-09-30T06:47:26.930Z,8.57
2022-09-30T06:49:58.425Z,8.58
2022-09-30T06:52:26.347Z,8.65
2022-09-30T06:54:56.544Z,8.72
2022-09-30T06:57:25.100Z,8.79
2022-09-30T06:59:52.139Z,8.87
2022-09-30T07:02:18.833Z,8.89
2022-09-30T07:04:45.360Z,8.93
2022-09-30T07:07:12.195Z,9.00
2022-09-30T07:09:38.816Z,9.05
2022-09-30T07:12:07.354Z,9.09
2022-09-30T07:14:33.865Z,9.18
2022-09-30T07:17:04.107Z,9.22
2022-09-30T07:19:31.418Z,9.29
2022-09-30T07:22:18.202Z,9.33
2022-09-30T07:24:44.613Z,9.40
2022-09-30T07:27:13.685Z,9.46
2022-09-30T07:30:07.169Z,9.52
2022-09-30T07:32:27.965Z,9.56
2022-09-30T07:34:54.490Z,9.63
2022-09-30T07:37:21.654Z,9.70
2022-09-30T07:39:48.566Z,9.82
2022-09-30T07:42:22.640Z,9.94
2022-09-30T07:44:52.979Z,10.00
2022-09-30T07:47:20.480Z,10.12
2022-09-30T07:49:47.363Z,10.22
2022-09-30T07:52:14.325Z,10.24
2022-09-30T07:54:46.628Z,10.28
2022-09-30T07:57:16.367Z,10.45
2022-09-30T07:59:43.041Z,10.47
2022-09-30T08:02:15.674Z,10.51
2022-09-30T08:04:44.173Z,10.63
2022-09-30T08:07:11.787Z,10.72
2022-09-30T08:09:38.545Z,10.83
2022-09-30T08:12:05.433Z,10.91
2022-09-30T08:14:32.126Z,11.11
2022-09-30T08:17:00.253Z,11.33
2022-09-30T08:19:28.850Z,11.43
2022-09-30T08:21:55.610Z,11.54
2022-09-30T08:24:23.957Z,11.64
2022-09-30T08:26:51.240Z,11.72
2022-09-30T08:29:20.388Z,11.87
2022-09-30T08:31:56.695Z,12.05
2022-09-30T08:34:30.466Z,12.22
2022-09-30T08:36:59.669Z,12.39
2022-09-30T08:39:26.419Z,12.45
2022-09-30T08:42:25.468Z,12.65
2022-09-30T08:45:23.258Z,12.95
2022-09-30T08:48:14.583Z,13.02
2022-09-30T08:51:02.050Z,13.07
2022-09-30T08:53:49.292Z,13.05
2022-09-30T08:56:28.154Z,13.08
2022-09-30T08:58:59.447Z,13.07
2022-09-30T09:01:33.951Z,13.36
2022-09-30T09:04:02.514Z,13.49
2022-09-30T09:06:28.953Z,13.54
2022-09-30T09:09:07.397Z,13.67
2022-09-30T09:12:08.405Z,13.86
2022-09-30T09:14:44.072Z,13.85
2022-09-30T09:17:28.913Z,13.85
2022-09-30T09:20:17.388Z,13.72
2022-09-30T09:22:48.680Z,13.33
2022-09-30T09:25:18.079Z,13.04
2022-09-30T09:28:00.596Z,12.78
2022-09-30T09:30:36.223Z,12.68
2022-09-30T09:33:18.659Z,12.66
2022-09-30T09:35:54.234Z,12.55
2022-09-30T09:38:50.173Z,12.50
2022-09-30T09:41:41.225Z,12.42
2022-09-30T09:44:32.248Z,12.43
2022-09-30T09:47:15.170Z,12.47
2022-09-30T09:49:44.659Z,12.45
2022-09-30T09:52:12.191Z,12.45
2022-09-30T09:54:48.214Z,12.51
2022-09-30T09:57:27.746Z,12.84
2022-09-30T10:00:22.592Z,13.01
2022-09-30T10:03:06.503Z,12.88
2022-09-30T10:05:39.633Z,12.72
2022-09-30T10:08:17.338Z,12.79
2022-09-30T10:10:48.225Z,13.39
2022-09-30T10:13:24.530Z,13.94
2022-09-30T10:15:54.965Z,14.28
2022-09-30T10:18:37.493Z,14.13
2022-09-30T10:21:23.002Z,13.65
2022-09-30T10:23:49.650Z,13.46
2022-09-30T10:26:22.480Z,13.54
2022-09-30T10:28:52.862Z,13.45
2022-09-30T10:31:30.139Z,13.30
2022-09-30T10:34:21.753Z,13.23
2022-09-30T10:36:48.959Z,13.16
2022-09-30T10:39:35.786Z,13.21
2022-09-30T10:42:16.570Z,13.24
2022-09-30T10:44:46.673Z,13.22
2022-09-30T10:47:22.712Z,13.21
2022-09-30T10:49:51.507Z,13.17
2022-09-30T10:52:40.461Z,13.20
2022-09-30T10:55:25.321Z,13.25
2022-09-30T10:57:54.677Z,13.26
2022-09-30T11:00:23.790Z,13.28
2022-09-30T11:03:14.677Z,13.23
2022-09-30T11:05:44.098Z,13.26
2022-09-30T11:08:21.026Z,13.89
2022-09-30T11:11:10.335Z,13.72
2022-09-30T11:13:48.487Z,13.97
2022-09-30T11:16:27.270Z,13.97
2022-09-30T11:19:26.996Z,13.74
2022-09-30T11:21:59.360Z,13.87
2022-09-30T11:24:38.757Z,14.52
2022-09-30T11:27:14.271Z,14.67
2022-09-30T11:30:19.828Z,15.00
2022-09-30T11:33:11.105Z,15.44
2022-09-30T11:35:43.620Z,14.96
2022-09-30T11:38:47.786Z,14.44
2022-09-30T11:41:35.836Z,14.97
2022-09-30T11:44:08.318Z,15.43
2022-09-30T11:46:40.478Z,15.59
2022-09-30T11:49:21.172Z,15.54
2022-09-30T11:52:14.078Z,15.59
2022-09-30T11:54:47.322Z,15.64
2022-09-30T11:57:51.890Z,15.62
2022-09-30T12:00:19.973Z,15.55
2022-09-30T12:03:08.014Z,15.65
2022-09-30T12:05:43.808Z,15.67
2022-09-30T12:08:42.302Z,15.63
2022-09-30T12:11:13.717Z,15.52
2022-09-30T12:13:57.292Z,15.57
2022-09-30T12:16:31.945Z,15.67
2022-09-30T12:19:16.215Z,15.69
2022-09-30T12:22:05.501Z,15.69
2022-09-30T12:24:44.886Z,15.85
2022-09-30T12:27:14.381Z,15.75
2022-09-30T12:30:13.258Z,15.75
2022-09-30T12:32:42.825Z,15.76
2022-09-30T12:35:30.969Z,15.78
2022-09-30T12:38:03.513Z,15.62
2022-09-30T12:40:52.347Z,15.64
2022-09-30T12:43:37.506Z,15.65
2022-09-30T12:46:29.146Z,15.58
2022-09-30T12:49:01.522Z,15.64
2022-09-30T12:51:34.175Z,15.40
2022-09-30T12:54:24.519Z,15.24
2022-09-30T12:56:59.273Z,15.29
2022-09-30T12:59:30.088Z,15.35
2022-09-30T13:01:58.902Z,15.38
2022-09-30T13:04:33.148Z,15.41
2022-09-30T13:06:59.584Z,15.40
2022-09-30T13:09:34.947Z,15.40
2022-09-30T13:12:01.449Z,15.44
2022-09-30T13:14:35.990Z,15.45
2022-09-30T13:17:08.792Z,15.37
2022-09-30T13:19:51.293Z,15.16
2022-09-30T13:22:20.809Z,15.24
2022-09-30T13:25:05.380Z,15.16
2022-09-30T13:27:44.642Z,15.07
2022-09-30T13:30:14.674Z,15.11
2022-09-30T13:32:43.368Z,15.11
2022-09-30T13:35:34.695Z,15.08
2022-09-30T13:38:16.795Z,14.96
2022-09-30T13:41:01.354Z,15.04
2022-09-30T13:43:34.069Z,15.08
2022-09-30T13:46:30.686Z,15.18
2022-09-30T13:49:05.176Z,15.20
2022-09-30T13:51:33.265Z,15.17
2022-09-30T13:54:06.917Z,15.10
2022-09-30T13:56:36.673Z,15.03
2022-09-30T13:59:13.407Z,15.02
2022-09-30T14:01:57.892Z,15.00
2022-09-30T14:04:36.266Z,14.97
2022-09-30T14:07:19.012Z,14.97
2022-09-30T14:09:55.653Z,14.94
2022-09-30T14:12:46.710Z,14.96
2022-09-30T14:15:42.534Z,14.94
2022-09-30T14:18:48.668Z,14.88
2022-09-30T14:21:35.558Z,14.85
2022-09-30T14:24:21.684Z,14.77
2022-09-30T14:27:06.782Z,14.77
2022-09-30T14:29:43.401Z,14.82
2022-09-30T14:32:31.506Z,14.83
2022-09-30T14:35:00.564Z,14.84
2022-09-30T14:37:33.261Z,14.81
2022-09-30T14:40:00.046Z,14.80
2022-09-30T14:42:34.921Z,14.80
2022-09-30T14:45:05.742Z,14.77
2022-09-30T14:47:40.506Z,14.76
2022-09-30T14:50:18.325Z,14.66
2022-09-30T14:52:47.353Z,14.60
2022-09-30T14:55:25.269Z,14.57
2022-09-30T14:57:57.984Z,14.60
2022-09-30T15:00:30.994Z,14.58
2022-09-30T15:02:59.492Z,14.56
2022-09-30T15:05:26.792Z,14.61
2022-09-30T15:07:53.757Z,14.66
2022-09-30T15:10:23.326Z,14.63
2022-09-30T15:12:51.803Z,14.57
2022-09-30T15:15:35.161Z,14.55
2022-09-30T15:18:43.022Z,14.52
2022-09-30T15:21:14.565Z,14.48
2022-09-30T15:23:44.784Z,14.48
2022-09-30T15:26:13.281Z,14.46
2022-09-30T15:28:40.541Z,14.47
2022-09-30T15:31:18.409Z,14.43
2022-09-30T15:33:45.724Z,14.38
2022-09-30T15:36:17.215Z,14.33
2022-09-30T15:38:51.751Z,14.27
2022-09-30T15:41:18.568Z,14.27
2022-09-30T15:43:51.053Z,14.23
2022-09-30T15:46:29.515Z,14.20
2022-09-30T15:48:58.911Z,14.17
2022-09-30T15:51:34.744Z,14.11
2022-09-30T15:54:16.347Z,14.08
2022-09-30T15:56:43.507Z,14.04
2022-09-30T15:59:11.809Z,14.02
2022-09-30T16:01:42.686Z,14.03
2022-09-30T16:04:24.409Z,13.98
2022-09-30T16:06:55.034Z,13.90
2022-09-30T16:09:33.675Z,13.89
2022-09-30T16:12:14.970Z,13.82
2022-09-30T16:14:49.332Z,13.79
2022-09-30T16:17:32.393Z,13.70
2022-09-30T16:20:10.979Z,13.65
2022-09-30T16:22:40.545Z,13.58
2022-09-30T16:25:27.876Z,13.53
2022-09-30T16:28:00.905Z,13.50
2022-09-30T16:30:28.835Z,13.44
2022-09-30T16:33:00.639Z,13.38
2022-09-30T16:35:28.470Z,13.30
2022-09-30T16:38:01.259Z,13.21
2022-09-30T16:40:28.914Z,13.05
2022-09-30T16:42:55.910Z,12.87
2022-09-30T16:45:22.967Z,12.78
2022-09-30T16:47:50.486Z,12.80
2022-09-30T16:50:30.372Z,12.72
2022-09-30T16:52:56.919Z,12.58
2022-09-30T16:55:25.422Z,12.51
2022-09-30T16:57:53.123Z,12.54
2022-09-30T17:00:19.739Z,12.45
2022-09-30T17:02:47.705Z,12.33
2022-09-30T17:05:18.550Z,12.21
2022-09-30T17:07:52.882Z,12.09
2022-09-30T17:10:23.647Z,12.03
2022-09-30T17:12:50.645Z,11.96
2022-09-30T17:15:18.772Z,11.86
2022-09-30T17:17:45.804Z,11.76
2022-09-30T17:20:12.599Z,11.73
2022-09-30T17:22:39.357Z,11.69
2022-09-30T17:25:06.585Z,11.63
2022-09-30T17:27:33.427Z,11.56
2022-09-30T17:30:01.230Z,11.50
2022-09-30T17:32:27.790Z,11.44
2022-09-30T17:34:54.240Z,11.34
2022-09-30T17:37:21.114Z,11.31
2022-09-30T17:39:47.619Z,11.28
2022-09-30T17:42:34.205Z,11.22
2022-09-30T17:45:00.662Z,11.17
2022-09-30T17:47:27.160Z,11.18
2022-09-30T17:49:54.105Z,11.17
2022-09-30T17:52:21.249Z,11.07
2022-09-30T17:54:52.304Z,11.06
2022-09-30T17:57:20.329Z,10.93
2022-09-30T17:59:46.839Z,10.88
2022-09-30T18:02:15.975Z,10.86
2022-09-30T18:04:42.488Z,10.83
2022-09-30T18:07:10.164Z,10.85
2022-09-30T18:09:37.920Z,10.80
2022-09-30T18:12:05.098Z,10.73
2022-09-30T18:14:38.120Z,10.72
2022-09-30T18:17:05.769Z,10.68
2022-09-30T18:19:32.994Z,10.64
2022-09-30T18:21:59.430Z,10.63
2022-09-30T18:24:44.852Z,10.58
2022-09-30T18:27:15.101Z,10.59
2022-09-30T18:29:41.784Z,10.58
2022-09-30T18:32:08.856Z,10.60
2022-09-30T18:34:35.412Z,10.66
2022-09-30T18:37:04.093Z,10.72
2022-09-30T18:39:31.261Z,10.72
2022-09-30T18:41:57.762Z,10.83
2022-09-30T18:44:25.625Z,10.83
2022-09-30T18:46:55.441Z,10.89
2022-09-30T18:49:24.836Z,10.91
2022-09-30T18:51:51.301Z,10.88
2022-09-30T18:54:18.076Z,10.88
2022-09-30T18:56:44.715Z,10.85
2022-09-30T18:59:18.169Z,10.87
2022-09-30T19:01:47.849Z,10.83
2022-09-30T19:04:14.587Z,10.78
2022-09-30T19:06:43.597Z,10.78
2022-09-30T19:09:10.332Z,10.88
2022-09-30T19:11:37.107Z,10.98
2022-09-30T19:14:05.624Z,11.22
2022-09-30T19:16:37.914Z,11.29
2022-09-30T19:19:06.369Z,11.39
2022-09-30T19:21:36.860Z,11.39
2022-09-30T19:24:07.954Z,11.28
2022-09-30T19:26:37.080Z,11.28
2022-09-30T19:29:05.433Z,11.30
2022-09-30T19:31:34.108Z,11.36
2022-09-30T19:34:01.938Z,11.36
2022-09-30T19:36:32.701Z,11.40
2022-09-30T19:39:11.247Z,11.40
2022-09-30T19:41:38.864Z,11.41
2022-09-30T19:44:05.366Z,11.32
2022-09-30T19:46:31.859Z,11.22
2022-09-30T19:48:58.374Z,11.23
2022-09-30T19:51:26.382Z,11.20
2022-09-30T19:54:05.055Z,11.20
2022-09-30T19:56:33.779Z,11.32
2022-09-30T19:59:04.002Z,11.34
2022-09-30T20:01:31.248Z,11.31
2022-09-30T20:04:04.677Z,11.32
2022-09-30T20:06:32.652Z,11.45
2022-09-30T20:09:00.999Z,11.51
2022-09-30T20:11:33.346Z,11.56
2022-09-30T20:14:19.521Z,11.53
2022-09-30T20:16:48.343Z,11.55
2022-09-30T20:19:16.218Z,11.55
2022-09-30T20:21:42.914Z,11.56
2022-09-30T20:24:11.384Z,11.48
2022-09-30T20:26:39.037Z,11.47
2022-09-30T20:29:08.731Z,11.63
2022-09-30T20:31:37.121Z,11.67
2022-09-30T20:34:04.202Z,11.69
2022-09-30T20:36:31.974Z,11.72
2022-09-30T20:39:00.583Z,11.75
2022-09-30T20:41:27.628Z,11.76
2022-09-30T20:43:54.188Z,11.80
2022-09-30T20:46:22.494Z,11.77
2022-09-30T20:48:49.899Z,11.74
2022-09-30T20:51:20.563Z,11.80
2022-09-30T20:53:51.973Z,11.83
2022-09-30T20:56:21.463Z,11.96
2022-09-30T20:58:49.462Z,11.93
2022-09-30T21:01:18.412Z,11.89
2022-09-30T21:03:52.494Z,11.87
2022-09-30T21:06:21.298Z,11.87
2022-09-30T21:08:48.879Z,11.86
2022-09-30T21:11:15.471Z,11.86
2022-09-30T21:13:43.172Z,11.87
2022-09-30T21:16:12.273Z,11.86
2022-09-30T21:18:38.864Z,11.87
2022-09-30T21:21:05.788Z,11.92
2022-09-30T21:23:37.562Z,11.94
2022-09-30T21:26:06.816Z,11.94
2022-09-30T21:28:33.885Z,11.90
2022-09-30T21:31:05.358Z,11.94
2022-09-30T21:33:31.856Z,12.00
2022-09-30T21:36:00.186Z,12.09
2022-09-30T21:38:26.808Z,12.07
2022-09-30T21:41:01.382Z,11.96
2022-09-30T21:43:31.893Z,11.98
2022-09-30T21:46:00.366Z,11.98
2022-09-30T21:48:27.771Z,12.03
2022-09-30T21:50:55.314Z,12.00
2022-09-30T21:53:27.302Z,12.04
2022-09-30T21:55:54.525Z,12.08
2022-09-30T21:58:23.853Z,12.07
2022-09-30T22:00:50.698Z,12.08
2022-09-30T22:03:17.610Z,12.05
2022-09-30T22:05:51.000Z,12.08
2022-09-30T22:08:17.716Z,12.04
2022-09-30T22:10:44.468Z,12.06
2022-09-30T22:13:11.902Z,12.03
2022-09-30T22:15:38.831Z,12.08
2022-09-30T22:18:08.246Z,12.09
2022-09-30T22:20:38.083Z,12.15
2022-09-30T22:23:04.599Z,12.12
2022-09-30T22:25:32.602Z,12.04
2022-09-30T22:27:59.466Z,12.00
2022-09-30T22:30:28.845Z,12.00
2022-09-30T22:33:13.654Z,12.03
2022-09-30T22:35:58.843Z,12.04
2022-09-30T22:38:25.753Z,12.03
2022-09-30T22:40:55.774Z,12.08
2022-09-30T22:43:26.535Z,12.14
2022-09-30T22:46:04.595Z,12.15
2022-09-30T22:48:31.874Z,12.09
2022-09-30T22:50:59.156Z,12.06
2022-09-30T22:53:26.916Z,12.07
2022-09-30T22:55:53.912Z,12.15
2022-09-30T22:58:21.213Z,12.14
2022-09-30T23:00:58.832Z,12.14
2022-09-30T23:03:25.898Z,12.09
2022-09-30T23:05:59.042Z,12.07
2022-09-30T23:08:34.276Z,12.03
2022-09-30T23:11:00.905Z,11.96
2022-09-30T23:13:30.663Z,11.96
2022-09-30T23:15:58.435Z,12.00
2022-09-30T23:18:26.370Z,11.99
2022-09-30T23:21:01.347Z,11.98
2022-09-30T23:23:31.795Z,11.95
2022-09-30T23:26:06.152Z,11.96
2022-09-30T23:28:32.713Z,11.98
2022-09-30T23:31:06.450Z,12.01
2022-09-30T23:33:33.104Z,12.02
2022-09-30T23:36:02.368Z,12.02
2022-09-30T23:38:29.579Z,12.00
2022-09-30T23:40:59.177Z,11.95
2022-09-30T23:43:34.085Z,11.94
2022-09-30T23:46:01.603Z,11.94
2022-09-30T23:48:28.471Z,11.92
2022-09-30T23:50:55.033Z,11.91
2022-09-30T23:53:25.445Z,11.93
2022-09-30T23:56:02.133Z,11.89
2022-09-30T23:58:29.445Z,11.85
